createdAt,value
2019-02-26T00:02:02.585Z,35.10
2019-02-26T00:04:36.873Z,35.30
2019-02-26T00:07:09.183Z,35.30
2019-02-26T00:09:41.580Z,35.40
2019-02-26T00:12:13.982Z,35.30
2019-02-26T00:14:47.560Z,35.40
2019-02-26T00:17:21.823Z,35.40
2019-02-26T00:19:54.398Z,35.30
2019-02-26T00:22:26.817Z,35.30
2019-02-26T00:25:00.913Z,35.30
2019-02-26T00:27:35.037Z,35.40
2019-02-26T00:30:11.185Z,35.40
2019-02-26T00:32:43.350Z,35.40
2019-02-26T00:35:16.491Z,35.40
2019-02-26T00:37:51.103Z,35.40
2019-02-26T00:40:25.065Z,35.20
2019-02-26T00:42:59.565Z,35.50
2019-02-26T00:45:33.555Z,35.40
2019-02-26T00:48:05.640Z,35.30
2019-02-26T00:50:39.819Z,35.70
2019-02-26T00:53:12.305Z,35.40
2019-02-26T00:55:44.712Z,35.40
2019-02-26T00:58:17.100Z,35.40
2019-02-26T01:00:49.522Z,35.60
2019-02-26T01:03:21.912Z,35.60
2019-02-26T01:05:54.234Z,35.80
2019-02-26T01:08:26.612Z,35.70
2019-02-26T01:10:59.918Z,36.00
2019-02-26T01:13:33.084Z,36.00
2019-02-26T01:16:05.508Z,36.10
2019-02-26T01:18:37.866Z,36.10
2019-02-26T01:21:10.263Z,35.80
2019-02-26T01:23:42.723Z,35.60
2019-02-26T01:26:15.147Z,35.70
2019-02-26T01:28:49.003Z,35.70
2019-02-26T01:31:24.688Z,35.70
2019-02-26T01:33:57.376Z,35.90
2019-02-26T01:36:29.936Z,35.70
2019-02-26T01:39:02.325Z,35.70
2019-02-26T01:41:36.681Z,35.70
2019-02-26T01:44:09.067Z,35.90
2019-02-26T01:46:41.476Z,35.80
2019-02-26T01:49:13.857Z,35.60
2019-02-26T01:51:47.926Z,35.60
2019-02-26T01:54:20.338Z,35.60
2019-02-26T01:56:53.461Z,35.70
2019-02-26T01:59:25.897Z,35.90
2019-02-26T02:01:58.319Z,36.10
2019-02-26T02:04:32.105Z,36.30
2019-02-26T02:07:06.086Z,36.30
2019-02-26T02:09:38.547Z,36.20
2019-02-26T02:12:11.121Z,36.20
2019-02-26T02:14:43.520Z,36.20
2019-02-26T02:17:15.992Z,36.30
2019-02-26T02:19:48.366Z,36.10
2019-02-26T02:22:21.365Z,36.20
2019-02-26T02:24:55.598Z,36.30
2019-02-26T02:27:30.347Z,36.20
2019-02-26T02:30:02.026Z,36.30
2019-02-26T02:32:35.509Z,36.60
2019-02-26T02:35:10.042Z,36.50
2019-02-26T02:37:42.146Z,36.50
2019-02-26T02:40:14.574Z,36.40
2019-02-26T02:42:49.168Z,36.40
2019-02-26T02:45:21.402Z,36.30
2019-02-26T02:47:57.812Z,36.40
2019-02-26T02:50:28.049Z,36.30
2019-02-26T02:53:02.087Z,36.40
2019-02-26T02:55:34.562Z,36.30
2019-02-26T02:58:06.972Z,36.40
2019-02-26T03:00:39.348Z,36.30
2019-02-26T03:03:11.752Z,36.30
2019-02-26T03:05:45.887Z,36.30
2019-02-26T03:08:19.476Z,36.50
2019-02-26T03:10:52.473Z,36.50
2019-02-26T03:13:25.467Z,36.30
2019-02-26T03:16:01.450Z,36.30
2019-02-26T03:18:32.989Z,36.50
2019-02-26T03:21:05.349Z,36.60
2019-02-26T03:23:40.376Z,36.60
2019-02-26T03:26:14.796Z,36.80
2019-02-26T03:28:48.153Z,36.80
2019-02-26T03:31:19.981Z,36.60
2019-02-26T03:33:59.950Z,36.60
2019-02-26T03:36:26.467Z,36.80
2019-02-26T03:39:00.738Z,37.00
2019-02-26T03:41:34.547Z,37.20
2019-02-26T03:44:08.785Z,37.30
2019-02-26T03:46:41.273Z,37.10
2019-02-26T03:49:13.684Z,37.10
2019-02-26T03:51:46.067Z,37.10
2019-02-26T03:54:18.534Z,37.10
2019-02-26T03:56:50.959Z,37.20
2019-02-26T03:59:23.600Z,37.10
2019-02-26T04:01:56.023Z,36.80
2019-02-26T04:04:31.119Z,36.80
2019-02-26T04:07:05.079Z,36.80
2019-02-26T04:09:39.104Z,36.80
2019-02-26T04:12:12.989Z,36.80
2019-02-26T04:15:03.125Z,36.70
2019-02-26T04:17:36.987Z,36.70
2019-02-26T04:20:10.341Z,36.80
2019-02-26T04:22:46.059Z,36.90
2019-02-26T04:25:42.479Z,36.80
2019-02-26T04:28:37.076Z,37.00
2019-02-26T04:32:27.620Z,36.80
2019-02-26T04:35:50.046Z,37.00
2019-02-26T04:39:39.378Z,36.80
2019-02-26T04:42:46.127Z,37.00
2019-02-26T04:46:22.016Z,37.30
2019-02-26T04:48:55.678Z,37.50
2019-02-26T04:51:28.076Z,37.20
2019-02-26T04:54:02.136Z,37.20
2019-02-26T04:56:37.067Z,37.10
2019-02-26T04:59:09.803Z,37.30
2019-02-26T05:01:44.651Z,37.30
2019-02-26T05:04:16.910Z,37.60
2019-02-26T05:06:49.305Z,37.70
2019-02-26T05:09:22.239Z,37.70
2019-02-26T05:11:55.779Z,37.50
2019-02-26T05:14:28.161Z,37.30
2019-02-26T05:17:00.499Z,37.40
2019-02-26T05:19:32.867Z,38.00
2019-02-26T05:22:07.064Z,37.60
2019-02-26T05:24:43.757Z,37.50
2019-02-26T05:27:19.664Z,37.40
2019-02-26T05:29:52.531Z,37.30
2019-02-26T05:32:29.355Z,37.60
2019-02-26T05:34:59.248Z,37.60
2019-02-26T05:37:32.651Z,37.50
2019-02-26T05:40:07.094Z,37.50
2019-02-26T05:42:39.944Z,37.60
2019-02-26T05:45:12.318Z,37.50
2019-02-26T05:47:46.053Z,37.50
2019-02-26T05:50:18.776Z,37.60
2019-02-26T05:52:57.663Z,37.50
2019-02-26T05:55:25.640Z,37.60
2019-02-26T05:57:59.344Z,37.60
2019-02-26T06:00:33.327Z,37.60
2019-02-26T06:03:09.666Z,37.60
2019-02-26T06:05:43.882Z,37.90
2019-02-26T06:08:15.281Z,37.80
2019-02-26T06:10:47.652Z,37.80
2019-02-26T06:13:20.044Z,37.60
2019-02-26T06:15:55.125Z,37.70
2019-02-26T06:18:26.544Z,37.80
2019-02-26T06:21:01.298Z,37.60
2019-02-26T06:23:34.480Z,37.60
2019-02-26T06:26:14.251Z,37.60
2019-02-26T06:28:46.295Z,37.70
2019-02-26T06:31:20.019Z,37.90
2019-02-26T06:33:52.129Z,38.10
2019-02-26T06:36:25.776Z,38.20
2019-02-26T06:38:58.971Z,38.20
2019-02-26T06:41:34.320Z,38.10
2019-02-26T06:44:06.723Z,37.90
2019-02-26T06:46:39.104Z,38.40
2019-02-26T06:49:11.493Z,38.60
2019-02-26T06:51:45.070Z,38.40
2019-02-26T06:54:19.650Z,38.30
2019-02-26T06:56:52.848Z,38.40
2019-02-26T06:59:32.489Z,38.60
2019-02-26T07:02:04.806Z,38.70
2019-02-26T07:04:37.211Z,38.90
2019-02-26T07:07:13.786Z,38.90
2019-02-26T07:09:43.991Z,39.00
2019-02-26T07:12:16.952Z,39.00
2019-02-26T07:14:52.671Z,38.90
2019-02-26T07:17:26.860Z,38.70
2019-02-26T07:20:00.300Z,38.90
2019-02-26T07:22:32.735Z,38.80
2019-02-26T07:25:08.350Z,38.70
2019-02-26T07:27:40.678Z,38.80
2019-02-26T07:30:13.098Z,38.90
2019-02-26T07:32:48.039Z,39.00
2019-02-26T07:35:19.551Z,39.20
2019-02-26T07:37:52.716Z,39.00
2019-02-26T07:40:27.797Z,39.00
2019-02-26T07:43:00.138Z,39.10
2019-02-26T07:45:32.547Z,39.10
2019-02-26T07:48:04.935Z,39.30
2019-02-26T07:50:40.026Z,39.50
2019-02-26T07:53:12.256Z,39.50
2019-02-26T07:55:45.537Z,39.30
2019-02-26T07:58:18.041Z,39.30
2019-02-26T08:00:52.199Z,39.50
2019-02-26T08:03:26.884Z,39.30
2019-02-26T08:05:59.437Z,39.50
2019-02-26T08:08:32.757Z,39.50
2019-02-26T08:11:05.182Z,39.40
2019-02-26T08:13:37.581Z,39.60
2019-02-26T08:16:09.918Z,39.70
2019-02-26T08:18:42.309Z,39.70
2019-02-26T08:21:14.706Z,40.00
2019-02-26T08:23:48.328Z,40.20
2019-02-26T08:26:22.043Z,40.30
2019-02-26T08:28:56.150Z,40.40
2019-02-26T08:31:28.576Z,40.40
2019-02-26T08:34:00.966Z,40.40
2019-02-26T08:36:33.441Z,40.50
2019-02-26T08:39:08.392Z,40.60
2019-02-26T08:41:58.074Z,40.60
2019-02-26T08:44:30.467Z,41.20
2019-02-26T08:47:06.052Z,40.50
2019-02-26T08:49:40.118Z,40.40
2019-02-26T08:52:12.078Z,40.40
2019-02-26T08:54:45.486Z,40.40
2019-02-26T08:57:17.884Z,40.40
2019-02-26T08:59:52.282Z,40.20
2019-02-26T09:02:25.474Z,40.20
2019-02-26T09:04:59.280Z,40.60
2019-02-26T09:07:31.976Z,40.40
2019-02-26T09:10:07.081Z,40.40
2019-02-26T09:12:39.011Z,40.60
2019-02-26T09:15:15.787Z,40.90
2019-02-26T09:17:48.268Z,40.80
2019-02-26T09:20:20.661Z,40.80
2019-02-26T09:22:54.504Z,40.90
2019-02-26T09:25:28.694Z,40.90
2019-02-26T09:28:01.242Z,40.90
2019-02-26T09:30:35.696Z,40.60
2019-02-26T09:33:10.908Z,40.40
2019-02-26T09:35:42.907Z,40.30
2019-02-26T09:38:17.549Z,40.10
2019-02-26T09:40:50.008Z,40.10
2019-02-26T09:43:24.491Z,40.10
2019-02-26T09:45:58.049Z,39.80
2019-02-26T09:48:30.383Z,39.80
2019-02-26T09:51:04.755Z,39.70
2019-02-26T09:53:36.876Z,39.60
2019-02-26T09:56:09.277Z,39.50
2019-02-26T09:58:45.267Z,39.40
2019-02-26T10:01:17.939Z,39.20
2019-02-26T10:03:49.885Z,39.30
2019-02-26T10:06:23.560Z,39.10
2019-02-26T10:08:56.210Z,38.90
2019-02-26T10:11:29.595Z,38.60
2019-02-26T10:14:02.941Z,38.40
2019-02-26T10:16:36.081Z,38.10
2019-02-26T10:19:10.291Z,38.20
2019-02-26T10:21:44.853Z,37.90
2019-02-26T10:24:20.406Z,37.80
2019-02-26T10:26:50.759Z,37.60
2019-02-26T10:29:23.164Z,37.30
2019-02-26T10:31:56.718Z,37.30
2019-02-26T10:34:30.380Z,37.20
2019-02-26T10:37:02.848Z,37.00
2019-02-26T10:39:36.329Z,36.80
2019-02-26T10:42:08.742Z,36.60
2019-02-26T10:44:42.684Z,36.40
2019-02-26T10:47:15.214Z,36.10
2019-02-26T10:49:49.008Z,35.80
2019-02-26T10:52:23.883Z,35.70
2019-02-26T10:54:55.811Z,35.80
2019-02-26T10:57:28.808Z,35.80
2019-02-26T11:00:04.850Z,35.40
2019-02-26T11:02:38.051Z,35.30
2019-02-26T11:05:11.375Z,35.30
2019-02-26T11:07:44.556Z,35.50
2019-02-26T11:10:19.570Z,35.50
2019-02-26T11:12:53.539Z,35.30
2019-02-26T11:15:26.941Z,35.60
2019-02-26T11:17:59.216Z,35.60
2019-02-26T11:20:34.081Z,35.60
2019-02-26T11:23:08.393Z,35.80
2019-02-26T11:25:40.150Z,35.60
2019-02-26T11:28:13.087Z,35.70
2019-02-26T11:30:46.539Z,35.70
2019-02-26T11:33:19.605Z,35.60
2019-02-26T11:35:51.990Z,35.80
2019-02-26T11:38:24.405Z,36.10
2019-02-26T11:40:56.808Z,36.60
2019-02-26T11:43:29.220Z,35.80
2019-02-26T11:46:03.716Z,35.80
2019-02-26T11:48:35.738Z,35.40
2019-02-26T11:51:08.117Z,35.60
2019-02-26T11:53:40.438Z,35.40
2019-02-26T11:56:13.628Z,35.70
2019-02-26T11:58:47.007Z,35.60
2019-02-26T12:01:19.471Z,35.60
2019-02-26T12:03:55.769Z,35.20
2019-02-26T12:06:25.965Z,35.40
2019-02-26T12:08:58.363Z,35.40
2019-02-26T12:11:30.734Z,35.40
2019-02-26T12:14:03.171Z,36.00
2019-02-26T12:16:35.568Z,35.60
2019-02-26T12:19:08.695Z,35.50
2019-02-26T12:21:42.214Z,35.80
2019-02-26T12:24:14.610Z,35.70
2019-02-26T12:26:47.715Z,35.50
2019-02-26T12:29:23.447Z,35.50
2019-02-26T12:31:55.742Z,35.30
2019-02-26T12:34:29.262Z,35.20
2019-02-26T12:37:02.635Z,35.30
2019-02-26T12:39:35.735Z,35.30
2019-02-26T12:42:10.675Z,35.20
2019-02-26T12:44:45.209Z,35.20
2019-02-26T12:47:18.740Z,35.40
2019-02-26T12:49:50.455Z,35.60
2019-02-26T12:52:25.120Z,35.50
2019-02-26T12:54:57.834Z,35.30
2019-02-26T12:57:31.615Z,35.50
2019-02-26T13:00:06.890Z,35.50
2019-02-26T13:02:43.202Z,35.70
2019-02-26T13:05:18.936Z,35.70
2019-02-26T13:07:48.708Z,35.50
2019-02-26T13:10:22.224Z,35.90
2019-02-26T13:12:59.321Z,35.70
2019-02-26T13:15:28.860Z,35.80
2019-02-26T13:18:01.267Z,35.50
2019-02-26T13:20:33.673Z,35.50
2019-02-26T13:23:21.885Z,35.50
2019-02-26T13:25:40.074Z,35.70
2019-02-26T13:28:12.488Z,35.60
2019-02-26T13:30:44.902Z,35.70
2019-02-26T13:33:18.206Z,35.80
2019-02-26T13:35:58.201Z,35.70
2019-02-26T13:38:34.148Z,35.60
2019-02-26T13:41:19.903Z,35.40
2019-02-26T13:43:33.879Z,35.10
2019-02-26T13:46:06.290Z,35.00
2019-02-26T13:48:38.719Z,35.70
2019-02-26T13:51:11.116Z,35.00
2019-02-26T13:53:43.494Z,35.10
2019-02-26T13:56:15.913Z,35.00
2019-02-26T13:58:48.302Z,35.00
2019-02-26T14:01:20.699Z,35.10
2019-02-26T14:03:53.142Z,35.00
2019-02-26T14:06:25.562Z,35.00
2019-02-26T14:08:58.138Z,35.80
2019-02-26T14:11:30.449Z,35.20
2019-02-26T14:14:02.828Z,34.70
2019-02-26T14:16:35.570Z,34.90
2019-02-26T14:19:07.984Z,34.80
2019-02-26T14:21:40.387Z,35.00
2019-02-26T14:24:12.758Z,35.00
2019-02-26T14:26:45.157Z,35.70
2019-02-26T14:29:17.660Z,35.20
2019-02-26T14:31:50.155Z,35.00
2019-02-26T14:34:22.617Z,34.90
2019-02-26T14:36:55.807Z,35.00
2019-02-26T14:39:28.280Z,35.00
2019-02-26T14:42:00.706Z,35.10
2019-02-26T14:44:33.082Z,34.80
2019-02-26T14:47:05.775Z,34.90
2019-02-26T14:49:38.165Z,35.00
2019-02-26T14:52:10.511Z,35.00
2019-02-26T14:54:42.905Z,34.80
2019-02-26T14:57:15.866Z,34.90
2019-02-26T14:59:48.258Z,34.90
2019-02-26T15:02:20.681Z,34.90
2019-02-26T15:04:53.070Z,34.90
2019-02-26T15:07:25.475Z,35.00
2019-02-26T15:09:57.861Z,35.00
2019-02-26T15:12:30.285Z,34.80
2019-02-26T15:15:04.439Z,34.80
2019-02-26T15:17:36.941Z,34.80
2019-02-26T15:20:13.405Z,35.40
2019-02-26T15:22:46.005Z,34.50
2019-02-26T15:25:21.017Z,34.30
2019-02-26T15:27:54.389Z,34.30
2019-02-26T15:30:28.365Z,34.40
2019-02-26T15:33:00.788Z,34.50
2019-02-26T15:35:33.154Z,34.80
2019-02-26T15:38:05.812Z,34.60
2019-02-26T15:40:38.224Z,34.50
2019-02-26T15:43:10.703Z,34.50
2019-02-26T15:45:51.591Z,34.20
2019-02-26T15:48:17.230Z,34.50
2019-02-26T15:50:49.635Z,34.50
2019-02-26T15:53:23.864Z,34.50
2019-02-26T15:55:59.155Z,34.60
2019-02-26T15:58:30.205Z,34.70
2019-02-26T16:01:02.596Z,34.40
2019-02-26T16:03:35.120Z,34.20
2019-02-26T16:06:07.576Z,34.40
2019-02-26T16:08:41.280Z,34.50
2019-02-26T16:11:14.064Z,34.60
2019-02-26T16:13:46.751Z,34.60
2019-02-26T16:16:19.134Z,34.60
2019-02-26T16:18:51.542Z,34.50
2019-02-26T16:21:25.602Z,34.40
2019-02-26T16:23:58.621Z,34.50
2019-02-26T16:26:31.015Z,34.30
2019-02-26T16:29:03.725Z,34.30
2019-02-26T16:31:36.124Z,34.20
2019-02-26T16:34:08.551Z,34.10
2019-02-26T16:36:40.927Z,34.10
2019-02-26T16:39:13.323Z,34.10
2019-02-26T16:41:45.741Z,34.10
2019-02-26T16:44:18.326Z,34.00
2019-02-26T16:46:50.700Z,33.80
2019-02-26T16:49:23.093Z,34.00
2019-02-26T16:51:55.664Z,34.00
2019-02-26T16:54:28.244Z,33.80
2019-02-26T16:57:00.565Z,33.60
2019-02-26T16:59:32.963Z,33.80
2019-02-26T17:02:05.342Z,33.60
2019-02-26T17:04:38.585Z,33.80
2019-02-26T17:07:12.690Z,34.00
2019-02-26T17:09:45.182Z,34.10
2019-02-26T17:12:17.573Z,34.00
2019-02-26T17:14:51.092Z,34.00
2019-02-26T17:17:23.616Z,34.20
2019-02-26T17:19:56.091Z,34.20
2019-02-26T17:22:28.585Z,34.30
2019-02-26T17:25:01.276Z,34.30
2019-02-26T17:27:34.046Z,34.30
2019-02-26T17:30:06.962Z,34.30
2019-02-26T17:32:39.359Z,34.30
2019-02-26T17:35:11.867Z,34.50
2019-02-26T17:37:44.249Z,34.40
2019-02-26T17:40:17.911Z,34.60
2019-02-26T17:42:51.225Z,34.60
2019-02-26T17:45:24.571Z,34.80
2019-02-26T17:47:57.526Z,34.90
2019-02-26T17:50:32.894Z,35.00
2019-02-26T17:53:05.395Z,35.10
2019-02-26T17:55:38.016Z,35.10
2019-02-26T17:58:10.812Z,35.10
2019-02-26T18:00:45.119Z,35.00
2019-02-26T18:03:18.140Z,35.00
2019-02-26T18:05:51.734Z,35.30
2019-02-26T18:08:24.802Z,35.40
2019-02-26T18:10:57.342Z,35.40
2019-02-26T18:13:30.904Z,35.30
2019-02-26T18:16:09.145Z,35.40
2019-02-26T18:18:38.903Z,35.40
2019-02-26T18:21:11.330Z,35.40
2019-02-26T18:23:44.285Z,35.40
2019-02-26T18:26:18.436Z,35.50
2019-02-26T18:28:50.891Z,35.40
2019-02-26T18:31:26.418Z,35.50
2019-02-26T18:33:58.518Z,35.50
2019-02-26T18:36:32.710Z,35.60
2019-02-26T18:39:07.101Z,35.70
2019-02-26T18:41:40.389Z,35.80
2019-02-26T18:44:13.485Z,35.80
2019-02-26T18:46:47.480Z,35.60
2019-02-26T18:49:21.836Z,35.60
2019-02-26T18:51:55.311Z,35.60
2019-02-26T18:54:29.391Z,35.60
2019-02-26T18:57:01.793Z,35.70
2019-02-26T18:59:35.369Z,35.80
2019-02-26T19:02:09.560Z,36.50
2019-02-26T19:04:42.014Z,35.90
2019-02-26T19:07:15.322Z,36.00
2019-02-26T19:09:49.365Z,36.00
2019-02-26T19:12:23.326Z,35.90
2019-02-26T19:14:56.821Z,36.10
2019-02-26T19:17:29.303Z,36.10
2019-02-26T19:20:01.733Z,36.10
2019-02-26T19:22:37.289Z,36.10
2019-02-26T19:25:10.543Z,36.10
2019-02-26T19:27:43.555Z,36.10
2019-02-26T19:30:18.116Z,36.20
2019-02-26T19:32:51.007Z,36.40
2019-02-26T19:35:24.061Z,36.50
2019-02-26T19:37:58.463Z,36.50
2019-02-26T19:40:38.653Z,36.20
2019-02-26T19:43:09.812Z,36.20
2019-02-26T19:45:44.816Z,36.10
2019-02-26T19:48:18.027Z,36.10
2019-02-26T19:50:50.885Z,36.20
2019-02-26T19:53:23.805Z,36.30
2019-02-26T19:55:56.502Z,36.20
2019-02-26T19:58:29.430Z,36.20
2019-02-26T20:01:03.490Z,36.20
2019-02-26T20:03:40.099Z,36.30
2019-02-26T20:06:11.536Z,36.20
2019-02-26T20:08:47.237Z,36.20
2019-02-26T20:11:22.372Z,36.40
2019-02-26T20:14:04.350Z,36.30
2019-02-26T20:16:31.163Z,36.30
2019-02-26T20:19:06.140Z,36.60
2019-02-26T20:21:39.435Z,36.40
2019-02-26T20:24:16.250Z,36.60
2019-02-26T20:26:49.940Z,36.70
2019-02-26T20:29:23.878Z,36.80
2019-02-26T20:31:57.787Z,36.80
2019-02-26T20:34:30.682Z,36.80
2019-02-26T20:37:04.596Z,36.80
2019-02-26T20:39:40.886Z,36.80
2019-02-26T20:42:13.639Z,37.40
2019-02-26T20:44:46.835Z,36.80
2019-02-26T20:47:19.731Z,36.90
2019-02-26T20:49:52.487Z,36.80
2019-02-26T20:52:25.392Z,36.80
2019-02-26T20:54:58.758Z,37.00
2019-02-26T20:57:31.296Z,36.90
2019-02-26T21:00:04.513Z,36.90
2019-02-26T21:02:38.429Z,36.90
2019-02-26T21:05:11.076Z,37.00
2019-02-26T21:07:44.037Z,37.00
2019-02-26T21:10:17.825Z,37.10
2019-02-26T21:12:50.879Z,37.30
2019-02-26T21:15:23.945Z,37.30
2019-02-26T21:17:58.613Z,37.40
2019-02-26T21:20:31.086Z,37.20
2019-02-26T21:23:04.179Z,37.10
2019-02-26T21:25:38.157Z,37.00
2019-02-26T21:28:10.943Z,37.00
2019-02-26T21:30:45.601Z,37.10
2019-02-26T21:33:19.012Z,37.10
2019-02-26T21:35:53.894Z,37.00
2019-02-26T21:38:26.022Z,37.10
2019-02-26T21:40:59.047Z,37.00
2019-02-26T21:43:34.636Z,37.20
2019-02-26T21:46:06.714Z,37.30
2019-02-26T21:48:39.501Z,37.30
2019-02-26T21:51:12.630Z,37.20
2019-02-26T21:53:46.672Z,37.30
2019-02-26T21:56:20.922Z,37.20
2019-02-26T21:58:56.887Z,37.20
2019-02-26T22:01:30.194Z,37.30
2019-02-26T22:04:03.111Z,37.30
2019-02-26T22:06:37.146Z,37.30
2019-02-26T22:09:10.237Z,37.40
2019-02-26T22:11:43.639Z,37.30
2019-02-26T22:14:17.840Z,37.50
2019-02-26T22:16:51.498Z,37.50
2019-02-26T22:19:26.011Z,37.40
2019-02-26T22:21:59.683Z,37.50
2019-02-26T22:24:32.780Z,37.60
2019-02-26T22:27:06.107Z,37.60
2019-02-26T22:29:38.511Z,37.70
2019-02-26T22:32:10.916Z,37.70
2019-02-26T22:34:44.861Z,38.10
2019-02-26T22:37:17.470Z,37.80
2019-02-26T22:40:10.419Z,37.80
2019-02-26T22:42:43.435Z,37.80
2019-02-26T22:45:17.604Z,37.70
2019-02-26T22:47:50.622Z,37.60
2019-02-26T22:50:24.915Z,37.60
2019-02-26T22:53:03.764Z,37.60
2019-02-26T22:55:36.285Z,37.80
2019-02-26T22:58:09.393Z,37.80
2019-02-26T23:01:30.806Z,37.90
2019-02-26T23:04:06.277Z,37.90
2019-02-26T23:06:39.341Z,38.00
2019-02-26T23:09:21.376Z,38.20
2019-02-26T23:11:54.634Z,38.50
2019-02-26T23:14:28.400Z,38.60
2019-02-26T23:17:01.640Z,38.80
2019-02-26T23:19:36.671Z,38.50
2019-02-26T23:22:09.950Z,38.20
2019-02-26T23:24:44.434Z,38.30
2019-02-26T23:27:18.374Z,38.30
2019-02-26T23:29:50.894Z,38.90
2019-02-26T23:32:24.106Z,38.10
2019-02-26T23:35:05.679Z,38.00
2019-02-26T23:37:39.630Z,38.10
2019-02-26T23:40:12.929Z,38.20
2019-02-26T23:42:46.005Z,38.30
2019-02-26T23:45:19.184Z,38.30
2019-02-26T23:47:52.395Z,38.60
2019-02-26T23:50:25.397Z,38.60
2019-02-26T23:53:00.939Z,38.60
2019-02-26T23:55:34.261Z,38.50
2019-02-26T23:58:07.188Z,38.60
